createdAt,value
2018-03-29T00:00:12.090Z,976.74
2018-03-29T00:01:12.207Z,976.78
2018-03-29T00:02:12.361Z,976.81
2018-03-29T00:03:12.472Z,976.79
2018-03-29T00:04:12.602Z,976.88
2018-03-29T00:05:12.680Z,976.90
2018-03-29T00:06:12.823Z,976.90
2018-03-29T00:07:13.114Z,976.91
2018-03-29T00:08:13.222Z,976.95
2018-03-29T00:09:13.357Z,977.01
2018-03-29T00:10:14.080Z,977.01
2018-03-29T00:11:13.879Z,976.93
2018-03-29T00:12:14.063Z,976.89
2018-03-29T00:13:14.145Z,976.95
2018-03-29T00:14:14.168Z,976.98
2018-03-29T00:15:14.343Z,976.96
2018-03-29T00:16:14.764Z,977.00
2018-03-29T00:17:14.647Z,977.04
2018-03-29T00:18:14.879Z,977.08
2018-03-29T00:19:15.064Z,977.07
2018-03-29T00:20:15.027Z,977.08
2018-03-29T00:21:15.206Z,977.04
2018-03-29T00:22:15.387Z,977.12
2018-03-29T00:23:15.569Z,977.13
2018-03-29T00:24:15.746Z,977.16
2018-03-29T00:25:15.953Z,977.22
2018-03-29T00:26:16.106Z,977.19
2018-03-29T00:27:16.285Z,977.18
2018-03-29T00:28:16.459Z,977.19
2018-03-29T00:29:16.630Z,977.29
2018-03-29T00:30:16.809Z,977.26
2018-03-29T00:31:16.992Z,977.27
2018-03-29T00:32:17.178Z,977.36
2018-03-29T00:33:17.360Z,977.26
2018-03-29T00:34:17.542Z,977.31
2018-03-29T00:35:17.721Z,977.38
2018-03-29T00:36:17.904Z,977.36
2018-03-29T00:37:18.086Z,977.39
2018-03-29T00:38:18.262Z,977.41
2018-03-29T00:39:18.444Z,977.44
2018-03-29T00:40:18.617Z,977.47
2018-03-29T00:41:18.789Z,977.45
2018-03-29T00:42:18.963Z,977.45
2018-03-29T00:43:19.142Z,977.50
2018-03-29T00:44:19.322Z,977.43
2018-03-29T00:45:19.503Z,977.53
2018-03-29T00:46:19.683Z,977.51
2018-03-29T00:47:19.864Z,977.54
2018-03-29T00:48:20.043Z,977.54
2018-03-29T00:49:20.228Z,977.52
2018-03-29T00:50:20.412Z,977.62
2018-03-29T00:51:20.596Z,977.62
2018-03-29T00:52:20.778Z,977.63
2018-03-29T00:53:20.953Z,977.66
2018-03-29T00:54:21.128Z,977.63
2018-03-29T00:55:21.307Z,977.70
2018-03-29T00:56:21.484Z,977.73
2018-03-29T00:57:21.661Z,977.77
2018-03-29T00:58:21.839Z,977.73
2018-03-29T00:59:22.017Z,977.81
2018-03-29T01:00:22.193Z,977.73
2018-03-29T01:01:22.376Z,977.88
2018-03-29T01:02:22.553Z,977.84
2018-03-29T01:03:22.734Z,977.92
2018-03-29T01:04:22.917Z,977.89
2018-03-29T01:05:23.099Z,977.92
2018-03-29T01:06:23.280Z,977.91
2018-03-29T01:07:23.458Z,977.93
2018-03-29T01:08:23.633Z,977.94
2018-03-29T01:09:23.808Z,977.97
2018-03-29T01:10:24.035Z,977.99
2018-03-29T01:11:24.169Z,978.01
2018-03-29T01:12:24.351Z,978.11
2018-03-29T01:13:24.531Z,978.16
2018-03-29T01:14:24.708Z,978.16
2018-03-29T01:15:24.888Z,978.22
2018-03-29T01:16:25.068Z,978.18
2018-03-29T01:17:25.246Z,978.16
2018-03-29T01:18:25.423Z,978.10
2018-03-29T01:19:25.602Z,978.18
2018-03-29T01:20:25.779Z,978.25
2018-03-29T01:21:25.952Z,978.29
2018-03-29T01:22:26.130Z,978.29
2018-03-29T01:23:26.309Z,978.31
2018-03-29T01:24:26.487Z,978.33
2018-03-29T01:25:26.662Z,978.34
2018-03-29T01:26:26.845Z,978.33
2018-03-29T01:27:27.026Z,978.37
2018-03-29T01:28:27.199Z,978.35
2018-03-29T01:29:27.377Z,978.42
2018-03-29T01:30:27.559Z,978.42
2018-03-29T01:31:27.756Z,978.55
2018-03-29T01:32:27.918Z,978.49
2018-03-29T01:33:28.096Z,978.49
2018-03-29T01:34:28.269Z,978.54
2018-03-29T01:35:28.447Z,978.53
2018-03-29T01:36:28.632Z,978.58
2018-03-29T01:37:28.813Z,978.59
2018-03-29T01:38:28.994Z,978.64
2018-03-29T01:39:29.166Z,978.60
2018-03-29T01:40:29.348Z,978.65
2018-03-29T01:41:29.534Z,978.66
2018-03-29T01:42:29.751Z,978.68
2018-03-29T01:43:29.815Z,978.72
2018-03-29T01:44:29.990Z,978.72
2018-03-29T01:45:30.167Z,978.76
2018-03-29T01:46:30.346Z,978.74
2018-03-29T01:47:30.530Z,978.78
2018-03-29T01:48:30.702Z,978.78
2018-03-29T01:49:30.884Z,978.81
2018-03-29T01:50:31.063Z,978.78
2018-03-29T01:51:31.244Z,978.81
2018-03-29T01:52:31.423Z,978.82
2018-03-29T01:53:31.603Z,978.80
2018-03-29T01:54:31.782Z,978.86
2018-03-29T01:55:31.956Z,978.91
2018-03-29T01:56:32.139Z,978.98
2018-03-29T01:57:32.314Z,978.96
2018-03-29T01:58:32.490Z,978.99
2018-03-29T01:59:32.668Z,978.96
2018-03-29T02:00:32.852Z,978.96
2018-03-29T02:01:33.036Z,978.99
2018-03-29T02:02:33.214Z,978.98
2018-03-29T02:03:33.397Z,978.97
2018-03-29T02:04:33.575Z,978.99
2018-03-29T02:05:33.748Z,979.04
2018-03-29T02:06:33.925Z,979.01
2018-03-29T02:07:34.102Z,979.04
2018-03-29T02:08:34.288Z,979.03
2018-03-29T02:09:34.468Z,979.03
2018-03-29T02:10:34.648Z,979.04
2018-03-29T02:11:34.826Z,979.00
2018-03-29T02:12:35.006Z,979.04
2018-03-29T02:13:35.181Z,979.08
2018-03-29T02:14:35.358Z,979.06
2018-03-29T02:15:35.543Z,979.00
2018-03-29T02:16:35.717Z,979.08
2018-03-29T02:17:35.896Z,979.12
2018-03-29T02:18:36.073Z,979.13
2018-03-29T02:19:36.249Z,979.15
2018-03-29T02:20:36.426Z,979.14
2018-03-29T02:21:36.602Z,979.17
2018-03-29T02:22:36.777Z,979.15
2018-03-29T02:23:36.957Z,979.14
2018-03-29T02:24:37.133Z,979.22
2018-03-29T02:25:37.323Z,979.23
2018-03-29T02:26:37.492Z,979.20
2018-03-29T02:27:37.669Z,979.27
2018-03-29T02:28:37.852Z,979.17
2018-03-29T02:29:38.033Z,979.23
2018-03-29T02:30:38.218Z,979.27
2018-03-29T02:31:38.401Z,979.31
2018-03-29T02:32:38.572Z,979.28
2018-03-29T02:33:38.749Z,979.38
2018-03-29T02:34:38.927Z,979.33
2018-03-29T02:35:39.104Z,979.27
2018-03-29T02:36:39.284Z,979.27
2018-03-29T02:37:39.459Z,979.34
2018-03-29T02:38:39.638Z,979.40
2018-03-29T02:39:39.817Z,979.41
2018-03-29T02:40:39.995Z,979.42
2018-03-29T02:41:40.225Z,979.43
2018-03-29T02:42:40.357Z,979.47
2018-03-29T02:43:40.540Z,979.47
2018-03-29T02:44:40.723Z,979.50
2018-03-29T02:45:40.901Z,979.48
2018-03-29T02:46:41.088Z,979.48
2018-03-29T02:47:41.269Z,979.46
2018-03-29T02:48:41.451Z,979.46
2018-03-29T02:49:41.634Z,979.50
2018-03-29T02:50:41.808Z,979.50
2018-03-29T02:51:41.990Z,979.50
2018-03-29T02:52:42.748Z,979.42
2018-03-29T02:53:42.297Z,979.45
2018-03-29T02:54:42.482Z,979.44
2018-03-29T02:55:42.658Z,979.43
2018-03-29T02:56:42.840Z,979.37
2018-03-29T02:57:43.021Z,979.41
2018-03-29T02:58:43.193Z,979.41
2018-03-29T02:59:43.373Z,979.40
2018-03-29T03:00:43.555Z,979.45
2018-03-29T03:01:43.733Z,979.44
2018-03-29T03:02:43.903Z,979.49
2018-03-29T03:03:44.085Z,979.43
2018-03-29T03:04:44.259Z,979.44
2018-03-29T03:05:44.443Z,979.48
2018-03-29T03:06:44.620Z,979.55
2018-03-29T03:07:44.803Z,979.50
2018-03-29T03:08:44.985Z,979.54
2018-03-29T03:09:45.157Z,979.52
2018-03-29T03:10:45.341Z,979.56
2018-03-29T03:11:45.525Z,979.61
2018-03-29T03:12:45.708Z,979.62
2018-03-29T03:13:45.883Z,979.61
2018-03-29T03:14:48.516Z,979.63
2018-03-29T03:15:51.591Z,979.63
2018-03-29T03:16:48.534Z,979.66
2018-03-29T03:17:50.865Z,979.71
2018-03-29T03:18:50.296Z,979.74
2018-03-29T03:19:51.247Z,979.74
2018-03-29T03:20:51.092Z,979.76
2018-03-29T03:21:51.314Z,979.78
2018-03-29T03:22:52.089Z,979.79
2018-03-29T03:23:52.129Z,979.84
2018-03-29T03:24:49.109Z,979.88
2018-03-29T03:25:50.412Z,979.91
2018-03-29T03:26:51.992Z,979.90
2018-03-29T03:27:52.139Z,979.92
2018-03-29T03:28:48.249Z,979.92
2018-03-29T03:29:48.424Z,979.93
2018-03-29T03:30:48.601Z,979.92
2018-03-29T03:31:48.778Z,979.93
2018-03-29T03:32:48.956Z,979.92
2018-03-29T03:33:49.135Z,979.93
2018-03-29T03:34:49.313Z,980.01
2018-03-29T03:35:49.484Z,979.99
2018-03-29T03:36:49.669Z,980.00
2018-03-29T03:37:49.850Z,980.02
2018-03-29T03:38:50.031Z,980.06
2018-03-29T03:39:50.215Z,980.04
2018-03-29T03:40:50.392Z,980.03
2018-03-29T03:41:50.573Z,980.04
2018-03-29T03:42:50.746Z,980.02
2018-03-29T03:43:50.933Z,980.05
2018-03-29T03:44:51.107Z,980.05
2018-03-29T03:45:51.291Z,980.10
2018-03-29T03:46:51.480Z,980.10
2018-03-29T03:47:51.652Z,980.11
2018-03-29T03:48:51.839Z,980.11
2018-03-29T03:49:52.015Z,980.10
2018-03-29T03:50:52.202Z,980.11
2018-03-29T03:51:52.376Z,980.16
2018-03-29T03:52:52.554Z,980.14
2018-03-29T03:53:52.737Z,980.17
2018-03-29T03:54:52.914Z,980.15
2018-03-29T03:55:53.101Z,980.18
2018-03-29T03:56:53.280Z,980.17
2018-03-29T03:57:53.472Z,980.16
2018-03-29T03:58:53.649Z,980.21
2018-03-29T03:59:53.831Z,980.21
2018-03-29T04:00:54.032Z,980.21
2018-03-29T04:01:54.228Z,980.21
2018-03-29T04:02:54.398Z,980.20
2018-03-29T04:03:54.580Z,980.23
2018-03-29T04:04:54.757Z,980.22
2018-03-29T04:05:54.941Z,980.24
2018-03-29T04:06:55.116Z,980.26
2018-03-29T04:07:55.293Z,980.27
2018-03-29T04:08:55.470Z,980.33
2018-03-29T04:09:55.654Z,980.29
2018-03-29T04:10:55.848Z,980.30
2018-03-29T04:11:56.028Z,980.32
2018-03-29T04:12:56.205Z,980.28
2018-03-29T04:13:56.379Z,980.30
2018-03-29T04:14:56.557Z,980.32
2018-03-29T04:15:56.733Z,980.32
2018-03-29T04:16:56.907Z,980.29
2018-03-29T04:17:57.086Z,980.33
2018-03-29T04:18:57.276Z,980.31
2018-03-29T04:19:57.482Z,980.35
2018-03-29T04:20:57.626Z,980.28
2018-03-29T04:21:57.818Z,980.31
2018-03-29T04:22:57.983Z,980.35
2018-03-29T04:23:58.160Z,980.37
2018-03-29T04:24:58.341Z,980.40
2018-03-29T04:25:58.540Z,980.44
2018-03-29T04:26:58.720Z,980.41
2018-03-29T04:27:58.901Z,980.47
2018-03-29T04:28:59.123Z,980.42
2018-03-29T04:29:59.296Z,980.42
2018-03-29T04:30:59.478Z,980.47
2018-03-29T04:31:59.656Z,980.51
2018-03-29T04:32:59.834Z,980.48
2018-03-29T04:34:00.012Z,980.53
2018-03-29T04:35:00.189Z,980.50
2018-03-29T04:36:00.367Z,980.52
2018-03-29T04:37:00.541Z,980.60
2018-03-29T04:38:00.716Z,980.60
2018-03-29T04:39:00.893Z,980.58
2018-03-29T04:40:01.075Z,980.58
2018-03-29T04:41:01.255Z,980.54
2018-03-29T04:42:01.433Z,980.62
2018-03-29T04:43:01.613Z,980.59
2018-03-29T04:44:01.794Z,980.59
2018-03-29T04:45:01.996Z,980.61
2018-03-29T04:46:02.186Z,980.56
2018-03-29T04:47:02.374Z,980.59
2018-03-29T04:48:05.144Z,980.59
2018-03-29T04:49:04.371Z,980.60
2018-03-29T04:50:04.772Z,980.63
2018-03-29T04:51:05.821Z,980.64
2018-03-29T04:52:05.509Z,980.69
2018-03-29T04:53:07.226Z,980.69
2018-03-29T04:54:04.995Z,980.66
2018-03-29T04:55:03.560Z,980.65
2018-03-29T04:56:03.738Z,980.75
2018-03-29T04:57:03.921Z,980.75
2018-03-29T04:58:04.099Z,980.76
2018-03-29T04:59:04.288Z,980.82
2018-03-29T05:00:04.474Z,980.83
2018-03-29T05:01:04.657Z,980.84
2018-03-29T05:02:04.838Z,980.83
2018-03-29T05:03:05.012Z,980.83
2018-03-29T05:04:05.344Z,980.83
2018-03-29T05:05:05.398Z,980.89
2018-03-29T05:06:05.583Z,980.84
2018-03-29T05:07:08.312Z,980.82
2018-03-29T05:08:08.127Z,980.86
2018-03-29T05:09:08.873Z,980.89
2018-03-29T05:10:08.727Z,980.87
2018-03-29T05:11:07.504Z,980.91
2018-03-29T05:12:06.656Z,980.93
2018-03-29T05:13:06.827Z,980.92
2018-03-29T05:14:07.008Z,980.93
2018-03-29T05:15:07.207Z,980.95
2018-03-29T05:16:07.379Z,981.00
2018-03-29T05:17:09.408Z,980.95
2018-03-29T05:18:10.521Z,980.97
2018-03-29T05:19:10.145Z,980.97
2018-03-29T05:20:11.982Z,980.99
2018-03-29T05:21:10.242Z,981.05
2018-03-29T05:22:12.300Z,980.99
2018-03-29T05:23:11.624Z,981.04
2018-03-29T05:24:10.088Z,981.03
2018-03-29T05:25:10.837Z,981.02
2018-03-29T05:26:10.865Z,981.07
2018-03-29T05:27:09.925Z,981.08
2018-03-29T05:28:12.363Z,981.13
2018-03-29T05:29:12.169Z,981.15
2018-03-29T05:30:12.248Z,981.17
2018-03-29T05:31:10.494Z,981.17
2018-03-29T05:32:15.389Z,981.17
2018-03-29T05:33:13.290Z,981.20
2018-03-29T05:34:13.473Z,981.22
2018-03-29T05:35:12.082Z,981.22
2018-03-29T05:36:14.833Z,981.26
2018-03-29T05:37:14.433Z,981.25
2018-03-29T05:38:15.514Z,981.22
2018-03-29T05:39:14.587Z,981.24
2018-03-29T05:40:13.011Z,981.26
2018-03-29T05:41:13.373Z,981.30
2018-03-29T05:42:11.516Z,981.26
2018-03-29T05:43:11.704Z,981.22
2018-03-29T05:44:11.875Z,981.21
2018-03-29T05:45:12.400Z,981.21
2018-03-29T05:46:12.189Z,981.25
2018-03-29T05:47:12.354Z,981.24
2018-03-29T05:48:12.722Z,981.29
2018-03-29T05:49:13.021Z,981.29
2018-03-29T05:50:12.941Z,981.30
2018-03-29T05:51:13.126Z,981.34
2018-03-29T05:52:13.308Z,981.27
2018-03-29T05:53:13.481Z,981.32
2018-03-29T05:54:13.653Z,981.35
2018-03-29T05:55:13.837Z,981.35
2018-03-29T05:56:14.004Z,981.37
2018-03-29T05:57:14.205Z,981.42
2018-03-29T05:58:14.362Z,981.40
2018-03-29T05:59:14.540Z,981.44
2018-03-29T06:00:14.725Z,981.46
2018-03-29T06:01:14.900Z,981.48
2018-03-29T06:02:15.076Z,981.54
2018-03-29T06:03:15.299Z,981.56
2018-03-29T06:04:15.428Z,981.55
2018-03-29T06:05:15.613Z,981.56
2018-03-29T06:06:15.791Z,981.55
2018-03-29T06:07:15.975Z,981.56
2018-03-29T06:08:16.156Z,981.58
2018-03-29T06:09:16.332Z,981.53
2018-03-29T06:10:16.525Z,981.52
2018-03-29T06:11:16.725Z,981.59
2018-03-29T06:12:17.200Z,981.60
2018-03-29T06:13:17.284Z,981.59
2018-03-29T06:14:17.666Z,981.57
2018-03-29T06:15:17.556Z,981.57
2018-03-29T06:16:20.515Z,981.59
2018-03-29T06:17:18.048Z,981.65
2018-03-29T06:18:18.168Z,981.67
2018-03-29T06:19:18.227Z,981.70
2018-03-29T06:20:18.309Z,981.70
2018-03-29T06:21:19.681Z,981.71
2018-03-29T06:22:18.745Z,981.72
2018-03-29T06:23:19.067Z,981.68
2018-03-29T06:24:19.205Z,981.67
2018-03-29T06:25:19.262Z,981.70
2018-03-29T06:26:19.458Z,981.73
2018-03-29T06:27:19.638Z,981.76
2018-03-29T06:28:20.029Z,981.78
2018-03-29T06:29:20.022Z,981.82
2018-03-29T06:30:19.825Z,981.80
2018-03-29T06:31:20.010Z,981.83
2018-03-29T06:32:20.199Z,981.87
2018-03-29T06:33:20.380Z,981.88
2018-03-29T06:34:21.409Z,981.81
2018-03-29T06:35:20.712Z,981.89
2018-03-29T06:36:20.890Z,981.86
2018-03-29T06:37:21.415Z,981.90
2018-03-29T06:38:21.225Z,981.89
2018-03-29T06:39:21.405Z,981.93
2018-03-29T06:40:21.582Z,981.96
2018-03-29T06:41:21.751Z,982.00
2018-03-29T06:42:21.929Z,982.01
2018-03-29T06:43:22.116Z,982.02
2018-03-29T06:44:22.289Z,982.04
2018-03-29T06:45:22.652Z,982.05
2018-03-29T06:46:22.914Z,982.07
2018-03-29T06:47:22.824Z,982.08
2018-03-29T06:48:23.014Z,982.09
2018-03-29T06:49:23.184Z,982.14
2018-03-29T06:50:23.365Z,982.14
2018-03-29T06:51:23.544Z,982.17
2018-03-29T06:52:25.354Z,982.20
2018-03-29T06:53:23.904Z,982.16
2018-03-29T06:54:25.614Z,982.15
2018-03-29T06:55:24.231Z,982.19
2018-03-29T06:56:24.894Z,982.12
2018-03-29T06:57:26.549Z,982.11
2018-03-29T06:58:25.282Z,982.14
2018-03-29T06:59:24.849Z,982.09
2018-03-29T07:00:25.050Z,982.13
2018-03-29T07:01:25.220Z,982.16
2018-03-29T07:02:25.569Z,982.13
2018-03-29T07:03:25.523Z,982.13
2018-03-29T07:04:25.722Z,982.21
2018-03-29T07:05:25.895Z,982.19
2018-03-29T07:06:26.886Z,982.19
2018-03-29T07:07:26.320Z,982.23
2018-03-29T07:08:26.480Z,982.15
2018-03-29T07:09:26.851Z,982.17
2018-03-29T07:10:26.791Z,982.17
2018-03-29T07:11:26.988Z,982.26
2018-03-29T07:12:27.167Z,982.24
2018-03-29T07:13:27.341Z,982.29
2018-03-29T07:14:27.522Z,982.34
2018-03-29T07:15:27.697Z,982.62
2018-03-29T07:16:27.878Z,983.02
2018-03-29T07:17:28.053Z,982.48
2018-03-29T07:18:28.231Z,982.50
2018-03-29T07:19:28.400Z,982.49
2018-03-29T07:20:28.588Z,982.37
2018-03-29T07:21:28.903Z,982.37
2018-03-29T07:22:28.958Z,982.31
2018-03-29T07:23:29.181Z,982.33
2018-03-29T07:24:29.341Z,982.37
2018-03-29T07:25:29.524Z,982.39
2018-03-29T07:26:29.733Z,982.33
2018-03-29T07:27:29.906Z,982.41
2018-03-29T07:28:30.302Z,982.41
2018-03-29T07:29:30.204Z,982.43
2018-03-29T07:30:31.730Z,982.49
2018-03-29T07:31:30.496Z,982.49
2018-03-29T07:32:30.675Z,982.48
2018-03-29T07:33:30.858Z,982.63
2018-03-29T07:34:31.036Z,982.46
2018-03-29T07:35:31.930Z,982.75
2018-03-29T07:36:31.676Z,982.48
2018-03-29T07:37:34.802Z,982.44
2018-03-29T07:38:31.820Z,982.45
2018-03-29T07:39:33.915Z,982.45
2018-03-29T07:40:33.851Z,982.41
2018-03-29T07:41:33.537Z,982.51
2018-03-29T07:42:33.951Z,982.64
2018-03-29T07:43:32.547Z,982.50
2018-03-29T07:44:35.352Z,982.57
2018-03-29T07:45:33.005Z,982.91
2018-03-29T07:46:35.421Z,983.03
2018-03-29T07:47:35.637Z,982.42
2018-03-29T07:48:34.350Z,982.41
2018-03-29T07:49:34.055Z,982.33
2018-03-29T07:50:34.371Z,982.43
2018-03-29T07:51:33.957Z,982.45
2018-03-29T07:52:34.700Z,982.37
2018-03-29T07:53:35.052Z,982.38
2018-03-29T07:54:35.495Z,982.33
2018-03-29T07:55:35.222Z,982.35
2018-03-29T07:56:35.919Z,982.33
2018-03-29T07:57:35.485Z,982.36
2018-03-29T07:58:34.918Z,982.33
2018-03-29T07:59:35.129Z,982.31
2018-03-29T08:00:35.420Z,982.38
2018-03-29T08:01:35.648Z,982.43
2018-03-29T08:02:35.602Z,983.18
2018-03-29T08:03:35.772Z,983.25
2018-03-29T08:04:35.952Z,983.28
2018-03-29T08:05:36.134Z,983.37
2018-03-29T08:06:36.315Z,983.15
2018-03-29T08:07:36.502Z,982.72
2018-03-29T08:08:37.065Z,982.77
2018-03-29T08:09:39.534Z,982.53
2018-03-29T08:10:39.136Z,982.63
2018-03-29T08:11:39.970Z,982.48
2018-03-29T08:12:39.324Z,982.66
2018-03-29T08:13:41.287Z,982.53
2018-03-29T08:14:39.545Z,982.50
2018-03-29T08:15:41.037Z,982.57
2018-03-29T08:16:40.478Z,982.62
2018-03-29T08:17:40.627Z,982.79
2018-03-29T08:18:41.923Z,982.88
2018-03-29T08:19:42.244Z,982.60
2018-03-29T08:20:41.757Z,982.84
2018-03-29T08:21:39.292Z,982.62
2018-03-29T08:22:40.935Z,982.58
2018-03-29T08:23:41.954Z,982.50
2018-03-29T08:24:40.884Z,982.47
2018-03-29T08:25:41.561Z,982.51
2018-03-29T08:26:41.870Z,982.51
2018-03-29T08:27:43.249Z,982.40
2018-03-29T08:28:40.035Z,982.44
2018-03-29T08:29:40.080Z,982.43
2018-03-29T08:30:40.257Z,982.42
2018-03-29T08:31:42.012Z,982.33
2018-03-29T08:32:40.811Z,982.37
2018-03-29T08:33:41.987Z,982.34
2018-03-29T08:34:40.902Z,982.35
2018-03-29T08:35:41.103Z,982.36
2018-03-29T08:36:42.732Z,982.33
2018-03-29T08:37:41.424Z,982.43
2018-03-29T08:38:41.701Z,982.54
2018-03-29T08:39:41.764Z,982.55
2018-03-29T08:40:41.964Z,982.59
2018-03-29T08:41:42.162Z,982.61
2018-03-29T08:42:45.865Z,982.52
2018-03-29T08:43:42.538Z,982.52
2018-03-29T08:44:42.762Z,982.49
2018-03-29T08:45:42.951Z,982.54
2018-03-29T08:46:43.005Z,982.54
2018-03-29T08:47:43.202Z,982.53
2018-03-29T08:48:43.411Z,982.56
2018-03-29T08:49:43.599Z,982.54
2018-03-29T08:50:43.780Z,982.60
2018-03-29T08:51:43.961Z,982.65
2018-03-29T08:52:44.148Z,982.62
2018-03-29T08:53:44.673Z,982.64
2018-03-29T08:54:46.445Z,982.59
2018-03-29T08:55:45.092Z,982.58
2018-03-29T08:56:45.293Z,982.57
2018-03-29T08:57:45.632Z,982.57
2018-03-29T08:58:45.149Z,982.67
2018-03-29T08:59:45.387Z,982.60
2018-03-29T09:00:45.649Z,982.55
2018-03-29T09:01:47.114Z,982.59
2018-03-29T09:02:48.090Z,982.55
2018-03-29T09:03:46.787Z,982.59
2018-03-29T09:04:48.300Z,982.57
2018-03-29T09:05:47.522Z,982.63
2018-03-29T09:06:46.664Z,982.56
2018-03-29T09:07:49.366Z,982.55
2018-03-29T09:08:49.505Z,982.55
2018-03-29T09:09:48.064Z,982.66
2018-03-29T09:10:47.844Z,982.52
2018-03-29T09:11:48.777Z,982.60
2018-03-29T09:12:48.578Z,982.59
2018-03-29T09:13:51.816Z,982.63
2018-03-29T09:14:47.818Z,982.67
2018-03-29T09:15:48.039Z,982.62
2018-03-29T09:16:48.262Z,982.64
2018-03-29T09:17:48.429Z,982.60
2018-03-29T09:18:48.618Z,982.65
2018-03-29T09:19:51.681Z,982.67
2018-03-29T09:20:51.994Z,982.61
2018-03-29T09:21:49.663Z,982.65
2018-03-29T09:22:49.361Z,982.68
2018-03-29T09:23:49.591Z,982.69
2018-03-29T09:24:49.723Z,982.65
2018-03-29T09:25:49.918Z,982.69
2018-03-29T09:26:50.110Z,982.80
2018-03-29T09:27:50.327Z,982.72
2018-03-29T09:28:50.493Z,982.76
2018-03-29T09:29:50.806Z,982.68
2018-03-29T09:30:50.767Z,982.73
2018-03-29T09:31:51.266Z,982.76
2018-03-29T09:32:51.421Z,982.67
2018-03-29T09:33:51.516Z,982.66
2018-03-29T09:34:51.397Z,982.93
2018-03-29T09:35:51.584Z,982.80
2018-03-29T09:36:51.959Z,982.83
2018-03-29T09:37:52.108Z,982.82
2018-03-29T09:38:52.361Z,982.77
2018-03-29T09:39:53.658Z,982.74
2018-03-29T09:40:53.466Z,982.75
2018-03-29T09:41:54.438Z,982.76
2018-03-29T09:42:55.372Z,982.80
2018-03-29T09:43:56.602Z,982.76
2018-03-29T09:44:55.140Z,982.84
2018-03-29T09:45:55.795Z,982.79
2018-03-29T09:46:55.592Z,983.15
2018-03-29T09:47:55.515Z,983.08
2018-03-29T09:48:55.861Z,983.08
2018-03-29T09:49:54.752Z,983.10
2018-03-29T09:50:54.808Z,983.03
2018-03-29T09:51:55.956Z,982.92
2018-03-29T09:52:55.397Z,982.94
2018-03-29T09:53:55.602Z,982.89
2018-03-29T09:54:55.615Z,982.89
2018-03-29T09:55:55.834Z,982.82
2018-03-29T09:56:55.914Z,983.08
2018-03-29T09:57:57.072Z,982.97
2018-03-29T09:58:56.187Z,983.52
2018-03-29T09:59:56.960Z,982.93
2018-03-29T10:00:56.369Z,982.90
2018-03-29T10:01:56.436Z,982.87
2018-03-29T10:02:56.597Z,982.80
2018-03-29T10:03:56.367Z,982.76
2018-03-29T10:04:56.760Z,982.81
2018-03-29T10:05:56.765Z,983.50
2018-03-29T10:06:56.994Z,982.80
2018-03-29T10:07:57.164Z,982.81
2018-03-29T10:08:57.364Z,982.80
2018-03-29T10:09:57.560Z,982.80
2018-03-29T10:10:57.787Z,982.85
2018-03-29T10:11:57.955Z,982.86
2018-03-29T10:12:58.139Z,982.82
2018-03-29T10:13:58.324Z,982.83
2018-03-29T10:14:58.524Z,982.83
2018-03-29T10:15:58.724Z,982.83
2018-03-29T10:16:58.912Z,982.93
2018-03-29T10:17:59.086Z,982.86
2018-03-29T10:18:59.317Z,982.95
2018-03-29T10:19:59.379Z,982.87
2018-03-29T10:20:59.589Z,982.78
2018-03-29T10:21:59.781Z,982.81
2018-03-29T10:22:59.966Z,982.79
2018-03-29T10:24:00.150Z,982.77
2018-03-29T10:25:00.325Z,982.71
2018-03-29T10:26:00.507Z,982.73
2018-03-29T10:27:00.682Z,982.76
2018-03-29T10:28:00.871Z,982.72
2018-03-29T10:29:01.047Z,982.81
2018-03-29T10:30:01.224Z,982.81
2018-03-29T10:31:01.400Z,982.79
2018-03-29T10:32:01.591Z,982.80
2018-03-29T10:33:01.756Z,982.83
2018-03-29T10:34:01.966Z,982.83
2018-03-29T10:35:02.145Z,982.81
2018-03-29T10:36:02.315Z,982.87
2018-03-29T10:37:02.506Z,982.82
2018-03-29T10:38:02.681Z,982.81
2018-03-29T10:39:02.857Z,982.76
2018-03-29T10:40:03.038Z,982.81
2018-03-29T10:41:03.219Z,982.85
2018-03-29T10:42:03.404Z,982.80
2018-03-29T10:43:03.582Z,982.80
2018-03-29T11:35:48.496Z,982.72
2018-03-29T11:36:48.534Z,982.72
2018-03-29T11:37:48.718Z,982.67
2018-03-29T11:38:48.956Z,982.65
2018-03-29T11:39:49.073Z,982.63
2018-03-29T11:40:49.259Z,982.64
2018-03-29T11:41:49.442Z,982.61
2018-03-29T11:42:49.641Z,982.69
2018-03-29T11:43:49.834Z,982.66
2018-03-29T11:44:50.052Z,982.71
2018-03-29T11:45:50.834Z,982.69
2018-03-29T11:46:51.457Z,982.68
2018-03-29T11:47:50.792Z,982.74
2018-03-29T11:48:50.725Z,982.69
2018-03-29T11:49:50.888Z,982.70
2018-03-29T11:50:51.142Z,982.64
2018-03-29T11:51:51.262Z,982.63
2018-03-29T11:52:51.638Z,982.61
2018-03-29T11:53:51.843Z,982.55
2018-03-29T11:54:51.824Z,982.62
2018-03-29T11:55:52.014Z,982.62
2018-03-29T11:56:52.193Z,982.61
2018-03-29T11:57:52.739Z,982.69
2018-03-29T11:58:52.753Z,982.72
2018-03-29T11:59:52.607Z,982.68
2018-03-29T12:00:53.096Z,982.71
2018-03-29T12:01:53.087Z,982.72
2018-03-29T12:02:53.280Z,982.74
2018-03-29T12:03:53.502Z,982.79
2018-03-29T12:04:53.363Z,982.83
2018-03-29T12:05:53.537Z,982.86
2018-03-29T12:06:53.774Z,982.84
2018-03-29T12:07:53.838Z,982.89
2018-03-29T12:08:54.022Z,982.93
2018-03-29T12:09:54.203Z,982.90
2018-03-29T12:10:54.502Z,982.86
2018-03-29T12:11:54.633Z,982.85
2018-03-29T12:12:54.690Z,982.79
2018-03-29T12:13:54.874Z,982.77
2018-03-29T12:14:55.055Z,982.85
2018-03-29T12:15:55.905Z,982.80
2018-03-29T12:16:55.464Z,982.73
2018-03-29T12:17:55.904Z,982.67
2018-03-29T12:18:55.997Z,982.59
2018-03-29T12:19:55.958Z,982.66
2018-03-29T12:20:56.139Z,982.67
2018-03-29T12:21:56.317Z,982.57
2018-03-29T12:22:56.529Z,982.63
2018-03-29T12:23:56.742Z,982.59
2018-03-29T12:24:56.882Z,982.63
2018-03-29T12:25:57.066Z,982.54
2018-03-29T12:26:59.308Z,982.57
2018-03-29T12:27:57.446Z,982.46
2018-03-29T12:28:57.643Z,982.47
2018-03-29T12:29:58.061Z,982.48
2018-03-29T12:30:58.292Z,982.51
2018-03-29T12:31:58.438Z,982.52
2018-03-29T12:32:58.413Z,982.51
2018-03-29T12:33:58.596Z,982.50
2018-03-29T12:34:58.774Z,982.50
2018-03-29T12:35:58.952Z,982.47
2018-03-29T12:36:59.130Z,982.49
2018-03-29T12:37:59.310Z,982.43
2018-03-29T12:38:59.526Z,982.44
2018-03-29T12:39:59.725Z,982.41
2018-03-29T12:40:59.904Z,982.38
2018-03-29T12:42:00.079Z,982.31
2018-03-29T12:43:00.260Z,982.28
2018-03-29T12:44:00.445Z,982.29
2018-03-29T12:45:00.673Z,982.25
2018-03-29T12:46:00.804Z,982.22
2018-03-29T12:47:00.989Z,982.20
2018-03-29T12:48:01.166Z,982.26
2018-03-29T12:49:01.353Z,982.23
2018-03-29T12:50:02.540Z,982.24
2018-03-29T12:51:01.674Z,982.23
2018-03-29T12:52:01.843Z,982.31
2018-03-29T12:53:02.038Z,982.24
2018-03-29T12:54:02.207Z,982.28
2018-03-29T12:55:02.401Z,982.30
2018-03-29T12:56:02.558Z,982.33
2018-03-29T12:57:02.738Z,982.27
2018-03-29T12:58:02.926Z,982.30
2018-03-29T12:59:03.113Z,982.33
2018-03-29T13:00:03.289Z,982.36
2018-03-29T13:01:03.470Z,982.30
2018-03-29T13:02:03.656Z,982.18
2018-03-29T13:03:03.826Z,982.19
2018-03-29T13:04:04.010Z,982.18
2018-03-29T13:05:04.181Z,982.14
2018-03-29T13:06:04.363Z,982.15
2018-03-29T13:07:04.581Z,982.11
2018-03-29T13:08:04.809Z,982.18
2018-03-29T13:09:04.859Z,982.17
2018-03-29T13:10:05.028Z,982.16
2018-03-29T13:11:05.202Z,982.19
2018-03-29T13:12:05.392Z,982.15
2018-03-29T13:13:05.570Z,982.20
2018-03-29T13:14:05.745Z,982.16
2018-03-29T13:15:05.932Z,982.21
2018-03-29T13:16:06.114Z,982.21
2018-03-29T13:17:06.295Z,982.27
2018-03-29T13:18:06.475Z,982.27
2018-03-29T13:19:06.652Z,982.23
2018-03-29T13:20:06.826Z,982.25
2018-03-29T13:21:07.013Z,982.22
2018-03-29T13:22:07.202Z,982.16